Time;durP1;ratioP1;P1;durP2;ratioP2;P2;SDS_P1;SDS_P2;PMS_P1;PMS_P2;Temp;Humidity;BMP_temperature;BMP_pressure;BME280_temperature;BME280_humidity;BME280_pressure;Samples;Min_cycle;Max_cycle;Signal;HPM_P1;HPM_P2
2021/09/18 00:02:12;;;;;;;15.85;9.90;;;;;;;16.67;100.00;99092.78;1687249;83;21831;-73
2021/09/18 00:04:38;;;;;;;16.07;10.03;;;;;;;16.65;100.00;99088.55;1703916;83;21590;-73
2021/09/18 00:07:04;;;;;;;16.52;10.10;;;;;;;16.61;100.00;99087.09;1691524;84;21130;-73
2021/09/18 00:09:32;;;;;;;19.75;10.00;;;;;;;16.57;100.00;99085.17;1691206;84;21099;-73
2021/09/18 00:12:00;;;;;;;14.90;8.85;;;;;;;16.53;100.00;99085.89;1701710;84;21555;-72
2021/09/18 00:14:27;;;;;;;16.00;9.83;;;;;;;16.51;100.00;99082.50;1701727;84;21549;-74
2021/09/18 00:16:53;;;;;;;20.52;9.65;;;;;;;16.52;100.00;99082.88;1702066;84;21101;-73
2021/09/18 00:19:20;;;;;;;14.03;9.33;;;;;;;16.49;100.00;99083.10;1701823;84;21063;-73
2021/09/18 00:21:48;;;;;;;15.18;9.38;;;;;;;16.50;100.00;99078.16;1701823;84;21096;-72
2021/09/18 00:24:16;;;;;;;16.10;10.90;;;;;;;16.52;100.00;99075.40;1708234;82;21064;-72
2021/09/18 00:26:42;;;;;;;18.45;10.25;;;;;;;16.52;100.00;99070.92;1700682;84;21343;-73
2021/09/18 00:29:09;;;;;;;17.55;9.70;;;;;;;16.53;100.00;99072.59;1700345;84;21068;-73
2021/09/18 00:31:36;;;;;;;11.80;7.37;;;;;;;16.52;100.00;99074.91;1698586;84;21235;-73
2021/09/18 00:34:04;;;;;;;15.90;10.05;;;;;;;16.53;100.00;99072.59;1700605;84;21077;-71
2021/09/18 00:36:32;;;;;;;15.78;10.70;;;;;;;16.52;100.00;99070.92;1700334;84;21053;-72
2021/09/18 00:39:00;;;;;;;17.77;10.78;;;;;;;16.48;100.00;99069.47;1700009;84;21124;-71
2021/09/18 00:41:28;;;;;;;22.73;10.35;;;;;;;16.47;100.00;99063.80;1678571;83;21049;-72
2021/09/18 00:43:56;;;;;;;18.92;10.70;;;;;;;16.45;100.00;99062.20;1714229;83;21132;-72
2021/09/18 00:46:22;;;;;;;19.00;10.28;;;;;;;16.44;100.00;99061.85;1714116;83;21716;-72
2021/09/18 00:48:51;;;;;;;15.80;9.55;;;;;;;16.41;100.00;99056.79;1714185;83;22286;-71
2021/09/18 00:51:18;;;;;;;16.85;9.80;;;;;;;16.39;100.00;99061.38;1713974;83;21131;-71
2021/09/18 00:53:45;;;;;;;18.75;10.88;;;;;;;16.38;100.00;99057.01;1714022;83;21102;-73
2021/09/18 00:56:12;;;;;;;18.10;10.30;;;;;;;16.37;100.00;99056.17;1714021;83;21073;-71
2021/09/18 00:58:40;;;;;;;12.95;8.15;;;;;;;16.36;100.00;99050.50;1714085;83;21601;-72
2021/09/18 01:01:08;;;;;;;18.30;10.43;;;;;;;16.36;100.00;99050.50;1714184;83;21130;-72
2021/09/18 01:03:36;;;;;;;14.68;8.73;;;;;;;16.35;100.00;99046.14;1714178;83;22022;-72
2021/09/18 01:06:03;;;;;;;19.32;11.03;;;;;;;16.35;100.00;99042.99;1713904;83;21522;-73
2021/09/18 01:08:30;;;;;;;17.25;10.63;;;;;;;16.36;100.00;99034.56;1714238;83;21071;-73
2021/09/18 01:10:58;;;;;;;17.27;9.90;;;;;;;16.34;100.00;99040.48;1707192;83;21045;-73
2021/09/18 01:13:26;;;;;;;15.68;10.50;;;;;;;16.34;100.00;99041.80;1694217;83;21119;-72
2021/09/18 01:15:54;;;;;;;19.42;11.50;;;;;;;16.36;100.00;99031.91;1707544;84;21099;-73
2021/09/18 01:18:21;;;;;;;22.60;10.05;;;;;;;16.38;100.00;99033.09;1707521;84;22935;-73
2021/09/18 01:20:49;;;;;;;17.02;10.90;;;;;;;16.37;100.00;99025.61;1707211;84;21100;-74
2021/09/18 01:23:22;;;;;;;19.77;12.05;;;;;;;16.36;100.00;99027.92;1707565;84;21025;-73
2021/09/18 01:25:49;;;;;;;20.70;12.10;;;;;;;16.36;100.00;99021.28;1707588;84;21095;-73
2021/09/18 01:28:17;;;;;;;20.68;12.33;;;;;;;16.36;100.00;99021.28;1685435;84;21112;-75
2021/09/18 01:30:46;;;;;;;22.10;11.95;;;;;;;16.35;100.00;99016.42;1678908;85;21097;-74
2021/09/18 01:33:12;;;;;;;16.80;12.10;;;;;;;16.36;100.00;99014.64;1679616;85;21064;-74
2021/09/18 01:35:40;;;;;;;22.77;12.53;;;;;;;16.34;100.00;99013.91;1678867;84;21105;-74
2021/09/18 01:38:07;;;;;;;20.40;11.55;;;;;;;16.37;100.00;99013.66;1679279;85;21058;-73
2021/09/18 01:40:39;;;;;;;18.82;12.28;;;;;;;16.38;100.00;99018.02;1689296;82;21157;-74
2021/09/18 01:43:07;;;;;;;19.98;13.45;;;;;;;16.38;100.00;99015.36;1707142;83;21037;-72
2021/09/18 01:45:34;;;;;;;19.20;12.53;;;;;;;16.41;100.00;99015.11;1707226;84;21064;-73
2021/09/18 01:48:07;;;;;;;22.37;12.93;;;;;;;16.40;100.00;99009.42;1707914;84;21085;-72
2021/09/18 01:50:47;;;;;;;17.95;11.88;;;;;;;16.40;100.00;99005.92;1707503;84;21248;-71
2021/09/18 01:53:17;;;;;;;21.68;13.80;;;;;;;16.40;100.00;99006.77;1707748;84;21061;-72
2021/09/18 01:55:43;;;;;;;21.30;12.50;;;;;;;16.38;100.00;99004.73;1707052;84;21125;-71
2021/09/18 01:58:10;;;;;;;22.25;14.30;;;;;;;16.39;100.00;99001.59;1707733;84;21040;-72
2021/09/18 02:00:39;;;;;;;18.55;12.90;;;;;;;16.38;100.00;99002.08;1707515;84;21040;-71
2021/09/18 02:03:06;;;;;;;25.02;13.58;;;;;;;16.37;100.00;98997.72;1707710;83;21118;-73
2021/09/18 02:05:34;;;;;;;21.30;13.88;;;;;;;16.38;100.00;98996.77;1707352;84;21172;-72
2021/09/18 02:08:00;;;;;;;20.82;10.98;;;;;;;16.38;100.00;98990.58;1707449;84;21148;-71
2021/09/18 02:10:29;;;;;;;22.82;14.00;;;;;;;16.37;100.00;98987.09;1707558;83;21060;-73
2021/09/18 02:12:57;;;;;;;28.40;16.30;;;;;;;16.39;100.00;98987.81;1710486;83;21081;-72
2021/09/18 02:15:24;;;;;;;26.52;14.10;;;;;;;16.38;100.00;98984.81;1710706;83;21112;-72
2021/09/18 02:17:52;;;;;;;25.27;14.63;;;;;;;16.36;100.00;98978.77;1710202;83;22002;-71
2021/09/18 02:20:23;;;;;;;23.25;13.75;;;;;;;16.36;100.00;98972.13;1710335;83;21571;-71
2021/09/18 02:22:52;;;;;;;23.02;14.40;;;;;;;16.37;100.00;98976.46;1710286;83;21635;-72
2021/09/18 02:25:18;;;;;;;20.65;13.32;;;;;;;16.40;100.00;98970.89;1709285;83;21052;-72
2021/09/18 02:27:45;;;;;;;30.00;14.68;;;;;;;16.41;100.00;98966.45;1708915;83;21507;-72
2021/09/18 02:30:19;;;;;;;27.95;13.75;;;;;;;16.42;100.00;98966.30;1709299;83;21112;-73
2021/09/18 02:32:46;;;;;;;23.47;14.15;;;;;;;16.41;100.00;98964.63;1708886;83;21701;-73
2021/09/18 02:35:18;;;;;;;23.67;15.15;;;;;;;16.42;100.00;98966.30;1709116;83;21092;-72
2021/09/18 02:37:44;;;;;;;26.12;14.83;;;;;;;16.42;100.00;98960.98;1708858;83;21553;-72
2021/09/18 02:40:14;;;;;;;22.32;14.85;;;;;;;16.41;100.00;98959.31;1712542;82;21085;-72
2021/09/18 02:42:47;;;;;;;19.48;12.35;;;;;;;16.40;100.00;98956.28;1739886;82;21085;-72
2021/09/18 02:45:13;;;;;;;;;;;;;;;16.40;100.00;98954.95;1743011;82;21119;-73
2021/09/18 02:47:42;;;;;;;27.40;14.33;;;;;;;16.40;100.00;98956.28;1739807;82;20572;-71
2021/09/18 02:50:10;;;;;;;24.82;13.15;;;;;;;16.41;100.00;98955.82;1739989;82;21084;-72
2021/09/18 02:52:38;;;;;;;21.65;12.70;;;;;;;16.41;100.00;98950.50;1739999;82;21710;-73
2021/09/18 02:55:06;;;;;;;26.82;14.45;;;;;;;16.40;100.00;98950.13;1740314;82;21811;-73
2021/09/18 02:57:34;;;;;;;21.52;14.43;;;;;;;16.39;100.00;98952.44;1739805;82;21049;-73
2021/09/18 03:00:04;;;;;;;20.62;13.15;;;;;;;16.39;100.00;98953.27;1739390;82;21603;-72
2021/09/18 03:02:31;;;;;;;21.23;13.55;;;;;;;16.39;100.00;98949.29;1682034;85;21065;-73
2021/09/18 03:04:57;;;;;;;26.42;14.55;;;;;;;16.41;100.00;98950.02;1682286;85;21092;-72
2021/09/18 03:07:24;;;;;;;22.55;14.90;;;;;;;16.42;100.00;98951.69;1681802;85;22180;-72
2021/09/18 03:09:52;;;;;;;22.42;14.80;;;;;;;16.43;100.00;98952.56;1681916;84;21091;-74
2021/09/18 03:12:19;;;;;;;23.47;14.23;;;;;;;16.43;100.00;98953.89;1679733;85;21064;-71
2021/09/18 03:14:47;;;;;;;22.25;12.82;;;;;;;16.44;100.00;98956.40;1678723;85;21440;-72
2021/09/18 03:17:13;;;;;;;24.05;14.07;;;;;;;16.47;100.00;98952.65;1678792;85;21076;-71
2021/09/18 03:19:41;;;;;;;22.32;14.03;;;;;;;16.47;100.00;98948.20;1734694;82;21044;-72
2021/09/18 03:22:10;;;;;;;22.50;14.83;;;;;;;16.48;100.00;98947.72;1740119;82;21040;-72
2021/09/18 03:24:38;;;;;;;19.52;14.13;;;;;;;16.49;100.00;98951.55;1739912;82;21083;-71
2021/09/18 03:27:04;;;;;;;14.95;11.63;;;;;;;16.50;100.00;98947.95;1739873;82;21064;-71
2021/09/18 03:29:32;;;;;;;22.27;13.30;;;;;;;16.52;100.00;98942.52;1740011;82;21092;-71
2021/09/18 03:31:59;;;;;;;26.95;14.30;;;;;;;16.55;100.00;98943.09;1740228;82;21565;-72
2021/09/18 03:34:26;;;;;;;18.65;11.63;;;;;;;16.56;100.00;98938.16;1740322;82;21057;-72
2021/09/18 03:36:53;;;;;;;23.77;14.60;;;;;;;16.58;100.00;98938.86;1740139;82;21013;-73
2021/09/18 03:39:19;;;;;;;24.98;14.87;;;;;;;16.58;100.00;98930.88;1740052;81;21132;-71
2021/09/18 03:41:47;;;;;;;26.70;15.00;;;;;;;16.58;100.00;98932.21;1740008;82;21971;-72
2021/09/18 03:44:15;;;;;;;20.77;13.70;;;;;;;16.58;100.00;98924.73;1740422;82;21064;-73
2021/09/18 03:46:42;;;;;;;24.43;15.05;;;;;;;16.58;100.00;98932.21;1740067;82;21045;-75
2021/09/18 03:49:09;;;;;;;21.70;14.87;;;;;;;16.62;100.00;98928.00;1740117;82;21032;-71
2021/09/18 03:51:36;;;;;;;21.25;14.40;;;;;;;16.62;100.00;98926.67;1739866;82;21076;-72
2021/09/18 03:54:03;;;;;;;25.43;15.28;;;;;;;16.63;100.00;98927.85;1740102;82;21056;-72
2021/09/18 03:56:30;;;;;;;21.12;14.47;;;;;;;16.64;100.00;98922.08;1739920;82;21067;-73
2021/09/18 03:58:58;;;;;;;23.87;14.78;;;;;;;16.65;100.00;98919.77;1740067;82;21100;-73
2021/09/18 04:01:25;;;;;;;23.73;15.08;;;;;;;16.66;100.00;98914.83;1709302;82;22093;-77
2021/09/18 04:03:53;;;;;;;21.73;13.75;;;;;;;16.67;100.00;98919.99;1707414;84;21048;-75
2021/09/18 04:06:20;;;;;;;27.75;16.23;;;;;;;16.69;100.00;98918.06;1684451;83;21114;-75
2021/09/18 04:08:47;;;;;;;23.75;14.38;;;;;;;16.70;100.00;98914.91;1675242;83;21440;-72
2021/09/18 04:11:14;;;;;;;19.37;13.32;;;;;;;16.73;100.00;98916.01;1660582;83;21104;-76
2021/09/18 04:15:41;;;;;;;17.40;13.93;;;;;;;16.81;100.00;98910.92;1781740;80;22758;-76
2021/09/18 04:18:09;;;;;;;25.48;16.23;;;;;;;16.80;100.00;98907.92;1755897;81;21096;-75
2021/09/18 04:20:36;;;;;;;21.85;14.60;;;;;;;16.85;100.00;98907.05;1756170;81;22173;-77
2021/09/18 04:23:04;;;;;;;26.15;16.50;;;;;;;16.87;100.00;98904.27;1754941;81;21442;-73
2021/09/18 04:25:30;;;;;;;21.97;15.28;;;;;;;16.89;100.00;98905.83;1733296;81;21649;-74
2021/09/18 04:27:57;;;;;;;21.87;15.93;;;;;;;16.89;100.00;98903.17;1743076;81;21639;-74
2021/09/18 04:30:25;;;;;;;24.00;15.60;;;;;;;16.91;100.00;98902.56;1747841;82;21205;-77
2021/09/18 04:32:54;;;;;;;24.07;16.95;;;;;;;16.93;100.00;98903.28;1718622;81;21205;-77
2021/09/18 04:35:22;;;;;;;23.15;13.98;;;;;;;16.96;100.00;98905.67;1749448;80;21081;-76
2021/09/18 04:37:49;;;;;;;27.30;15.72;;;;;;;16.99;100.00;98916.05;1770029;80;20993;-73
2021/09/18 04:40:17;;;;;;;19.82;15.85;;;;;;;17.03;100.00;98910.00;1736899;79;21062;-75
2021/09/18 04:42:43;;;;;;;20.43;14.68;;;;;;;17.07;100.00;98902.59;1726493;83;21072;-75
2021/09/18 04:45:11;;;;;;;27.90;14.83;;;;;;;17.10;100.00;98911.17;1724159;83;21077;-74
2021/09/18 04:47:38;;;;;;;21.85;14.80;;;;;;;17.13;100.00;98908.25;1719728;83;21128;-75
2021/09/18 04:50:06;;;;;;;25.23;17.27;;;;;;;17.17;100.00;98899.55;1723214;83;21119;-75
2021/09/18 04:52:33;;;;;;;23.57;17.48;;;;;;;17.18;100.00;98907.87;1723712;83;21505;-74
2021/09/18 04:55:01;;;;;;;26.55;17.07;;;;;;;17.18;100.00;98902.55;1723806;83;21579;-74
2021/09/18 04:57:28;;;;;;;27.05;17.55;;;;;;;17.20;100.00;98897.94;1723223;83;21100;-79
2021/09/18 04:59:56;;;;;;;29.70;17.62;;;;;;;17.24;100.00;98890.56;1722776;83;21053;-77
2021/09/18 05:02:23;;;;;;;22.30;15.48;;;;;;;17.26;100.00;98893.94;1719923;83;21025;-77
2021/09/18 05:04:50;;;;;;;25.92;16.15;;;;;;;17.27;100.00;98893.79;1719489;83;21093;-77
2021/09/18 05:07:16;;;;;;;27.27;16.07;;;;;;;17.27;100.00;98893.79;1723569;83;21065;-76
2021/09/18 05:09:43;;;;;;;28.17;16.52;;;;;;;17.31;100.00;98891.23;1724428;83;21566;-77
2021/09/18 05:12:10;;;;;;;20.35;14.43;;;;;;;17.34;100.00;98892.30;1724791;83;21524;-76
2021/09/18 05:14:37;;;;;;;24.90;16.85;;;;;;;17.35;100.00;98898.48;1723383;83;21579;-77
2021/09/18 05:17:05;;;;;;;26.20;16.65;;;;;;;17.39;100.00;98894.10;1720627;83;21530;-76
2021/09/18 05:19:31;;;;;;;23.98;16.82;;;;;;;17.43;100.00;98895.16;1720597;83;21096;-78
2021/09/18 05:21:58;;;;;;;30.88;16.27;;;;;;;17.44;100.00;98895.05;1720499;83;21059;-75
2021/09/18 05:24:27;;;;;;;22.65;14.60;;;;;;;17.44;100.00;98887.52;1720678;83;21073;-75
2021/09/18 05:26:55;;;;;;;30.23;18.03;;;;;;;17.44;100.00;98883.53;1720504;83;21089;-74
2021/09/18 05:29:23;;;;;;;25.43;16.75;;;;;;;17.51;100.00;98884.72;1718235;83;21435;-75
2021/09/18 05:31:51;;;;;;;25.27;15.48;;;;;;;17.54;100.00;98887.94;1717656;83;21561;-74
2021/09/18 05:34:18;;;;;;;26.85;18.65;;;;;;;17.58;100.00;98881.88;1717122;83;21092;-74
2021/09/18 05:36:45;;;;;;;24.90;18.57;;;;;;;17.64;100.00;98881.34;1717154;83;21061;-74
2021/09/18 05:39:12;;;;;;;26.02;18.15;;;;;;;17.70;100.00;98881.31;1718897;82;21108;-75
2021/09/18 05:41:38;;;;;;;27.82;18.30;;;;;;;17.71;100.00;98881.16;1709700;83;21100;-74
2021/09/18 05:44:04;;;;;;;31.07;19.27;;;;;;;17.77;100.00;98883.30;1691787;84;21043;-75
2021/09/18 05:46:32;;;;;;;30.82;18.95;;;;;;;17.77;100.00;98880.64;1691390;84;21249;-75
2021/09/18 05:48:59;;;;;;;24.92;17.92;;;;;;;17.80;100.00;98881.69;1691582;84;21032;-75
2021/09/18 05:51:25;;;;;;;24.52;16.87;;;;;;;17.82;100.00;98878.45;1712164;82;21550;-75
2021/09/18 05:53:52;;;;;;;32.80;20.17;;;;;;;17.86;100.00;98884.86;1732424;82;21085;-75
2021/09/18 05:56:18;;;;;;;28.27;17.82;;;;;;;17.88;100.00;98878.91;1717973;83;21133;-75
2021/09/18 05:58:50;;;;;;;32.78;16.55;;;;;;;17.91;100.00;98875.97;1716370;83;21145;-75
2021/09/18 06:01:16;;;;;;;25.72;19.23;;;;;;;17.95;100.00;98878.23;1720094;83;21516;-74
2021/09/18 06:03:43;;;;;;;23.90;16.85;;;;;;;17.95;100.00;98888.05;1719499;83;21508;-75
2021/09/18 06:06:10;;;;;;;31.70;22.13;;;;;;;17.94;100.00;98879.19;1718672;83;21540;-75
2021/09/18 06:08:37;;;;;;;30.50;21.00;;;;;;;17.90;100.00;98882.25;1719738;83;21596;-75
2021/09/18 06:11:06;;;;;;;28.12;21.45;;;;;;;17.91;100.00;98891.95;1718958;82;21436;-76
2021/09/18 06:13:35;;;;;;;30.82;21.05;;;;;;;17.88;100.00;98874.92;1718155;83;21021;-74
2021/09/18 06:16:02;;;;;;;29.48;21.23;;;;;;;17.92;100.00;98888.30;1708540;83;21101;-75
2021/09/18 06:18:29;;;;;;;28.73;20.72;;;;;;;17.94;100.00;98885.02;1708353;83;21603;-74
2021/09/18 06:20:59;;;;;;;37.67;24.70;;;;;;;17.95;100.00;98880.06;1704341;83;21124;-74
2021/09/18 06:23:27;;;;;;;28.98;19.42;;;;;;;17.97;100.00;98874.11;1708305;83;21115;-73
2021/09/18 06:25:54;;;;;;;32.33;23.20;;;;;;;18.00;100.00;98885.81;1709791;83;21056;-75
2021/09/18 06:28:21;;;;;;;33.60;23.50;;;;;;;17.96;100.00;98890.55;1708470;83;21077;-75
2021/09/18 06:30:48;;;;;;;37.90;24.32;;;;;;;17.99;100.00;98878.78;1670253;85;21118;-75
2021/09/18 06:33:15;;;;;;;34.92;24.95;;;;;;;17.95;100.00;98882.72;1711688;83;21061;-75
2021/09/18 06:35:42;;;;;;;35.63;23.20;;;;;;;18.01;100.00;98890.16;1691750;83;21096;-74
2021/09/18 06:38:11;;;;;;;33.13;24.72;;;;;;;18.02;100.00;98887.86;1712265;81;21073;-74
2021/09/18 06:40:37;;;;;;;35.38;22.90;;;;;;;18.07;100.00;98885.63;1708583;83;21568;-74
2021/09/18 06:43:05;;;;;;;35.80;25.77;;;;;;;18.10;100.00;98884.02;1712375;83;22269;-74
2021/09/18 06:45:32;;;;;;;35.00;24.43;;;;;;;18.13;100.00;98886.44;1712536;83;21100;-75
2021/09/18 06:47:59;;;;;;;35.20;25.72;;;;;;;18.15;100.00;98892.47;1711875;83;21471;-75
2021/09/18 06:50:26;;;;;;;38.90;25.77;;;;;;;18.19;100.00;98885.03;1712442;83;21041;-76
2021/09/18 06:52:52;;;;;;;36.40;25.23;;;;;;;18.21;100.00;98887.91;1692805;83;21104;-74
2021/09/18 06:55:19;;;;;;;40.90;26.25;;;;;;;18.22;100.00;98882.09;1713132;83;21080;-75
2021/09/18 06:57:46;;;;;;;39.08;25.80;;;;;;;18.21;100.00;98893.73;1712938;83;21122;-74
2021/09/18 07:00:14;;;;;;;35.35;24.40;;;;;;;18.18;100.00;98884.70;1705364;83;21976;-74
2021/09/18 07:02:41;;;;;;;37.08;23.47;;;;;;;18.21;100.00;98881.25;1701741;83;21064;-75
2021/09/18 07:05:09;;;;;;;42.25;24.57;;;;;;;18.22;100.00;98886.95;1675568;85;21070;-74
2021/09/18 07:07:38;;;;;;;41.00;23.22;;;;;;;18.21;100.00;98877.25;1706586;83;21050;-74
2021/09/18 07:10:06;;;;;;;33.20;25.27;;;;;;;18.23;100.00;98884.62;1707789;83;21069;-74
2021/09/18 07:12:32;;;;;;;34.10;23.67;;;;;;;18.21;100.00;98885.75;1682993;83;21800;-74
2021/09/18 07:14:59;;;;;;;35.28;23.35;;;;;;;18.21;100.00;98874.59;1707553;83;21024;-74
2021/09/18 07:17:25;;;;;;;37.70;23.85;;;;;;;18.19;100.00;98879.70;1704838;84;21479;-74
2021/09/18 07:19:55;;;;;;;34.33;22.80;;;;;;;18.20;100.00;98879.58;1704928;84;21033;-73
2021/09/18 07:22:21;;;;;;;36.73;22.98;;;;;;;18.24;100.00;98883.66;1703872;84;21098;-74
2021/09/18 07:24:49;;;;;;;38.63;22.52;;;;;;;18.29;100.00;98885.05;1706429;83;22172;-74
2021/09/18 07:27:17;;;;;;;28.42;21.33;;;;;;;18.30;100.00;98884.09;1709859;83;21671;-74
2021/09/18 07:29:45;;;;;;;30.55;20.25;;;;;;;18.34;100.00;98881.02;1709825;83;21065;-76
2021/09/18 07:32:12;;;;;;;32.08;20.37;;;;;;;18.39;100.00;98881.94;1710935;83;20974;-75
2021/09/18 07:34:39;;;;;;;32.58;20.52;;;;;;;18.44;100.00;98879.70;1710995;83;21485;-74
2021/09/18 07:37:05;;;;;;;27.20;19.37;;;;;;;18.49;100.00;98878.80;1711081;83;21913;-74
2021/09/18 07:39:32;;;;;;;25.55;19.00;;;;;;;18.55;100.00;98876.92;1710229;83;21081;-74
2021/09/18 07:41:58;;;;;;;31.23;19.35;;;;;;;18.63;100.00;98881.08;1705068;83;21058;-74
2021/09/18 07:44:25;;;;;;;28.42;18.23;;;;;;;18.70;100.00;98880.50;1660065;85;21050;-73
2021/09/18 07:46:53;;;;;;;21.00;16.97;;;;;;;18.72;100.00;98876.72;1659861;86;21081;-74
2021/09/18 07:49:19;;;;;;;27.55;17.50;;;;;;;18.74;100.00;98878.75;1660264;85;21506;-74
2021/09/18 07:51:46;;;;;;;31.35;16.73;;;;;;;18.76;100.00;98885.30;1659990;86;21604;-75
2021/09/18 07:54:14;;;;;;;31.25;19.27;;;;;;;18.78;100.00;98873.53;1660244;85;21054;-73
2021/09/18 07:56:41;;;;;;;31.48;17.42;;;;;;;18.85;100.00;98868.48;1660138;85;21073;-74
2021/09/18 07:59:08;;;;;;;26.80;15.75;;;;;;;18.94;100.00;98872.98;1660293;86;21108;-74
2021/09/18 08:01:36;;;;;;;24.02;17.12;;;;;;;18.98;99.45;98878.39;1660122;86;22008;-74
2021/09/18 08:04:02;;;;;;;28.05;16.10;;;;;;;19.00;99.67;98863.09;1660303;85;21738;-74
2021/09/18 08:06:30;;;;;;;25.30;16.75;;;;;;;19.04;99.80;98868.47;1649855;86;21058;-74
2021/09/18 08:08:58;;;;;;;29.60;15.95;;;;;;;19.08;99.55;98864.53;1628490;88;21549;-74
2021/09/18 08:11:26;;;;;;;20.72;15.72;;;;;;;19.12;99.34;98869.58;1628217;88;21172;-74
2021/09/18 08:13:57;;;;;;;28.93;17.37;;;;;;;19.06;98.38;98871.84;1628123;88;21090;-74
2021/09/18 08:16:27;;;;;;;24.72;16.25;;;;;;;19.01;98.10;98879.93;1633189;87;21120;-73
2021/09/18 08:18:53;;;;;;;23.62;16.25;;;;;;;19.00;97.79;98872.42;1635096;87;21073;-75
2021/09/18 08:21:22;;;;;;;25.50;17.17;;;;;;;19.03;98.00;98862.80;1634863;87;21324;-74
2021/09/18 08:23:48;;;;;;;26.10;16.65;;;;;;;19.06;97.56;98861.16;1635254;86;21087;-75
2021/09/18 08:26:15;;;;;;;25.57;15.05;;;;;;;19.08;97.34;98863.70;1662261;86;21254;-73
2021/09/18 08:28:42;;;;;;;25.68;16.50;;;;;;;19.00;95.86;98879.09;1661905;86;21077;-74
2021/09/18 08:31:08;;;;;;;21.30;15.53;;;;;;;18.99;96.36;98872.55;1662309;86;21119;-74
2021/09/18 08:33:36;;;;;;;23.98;15.63;;;;;;;18.98;96.71;98873.05;1661880;86;21633;-74
2021/09/18 08:36:03;;;;;;;23.00;14.23;;;;;;;18.93;96.30;98883.28;1662102;86;21602;-74
2021/09/18 08:38:29;;;;;;;20.50;14.25;;;;;;;18.90;96.36;98882.73;1661840;85;21999;-74
2021/09/18 08:40:57;;;;;;;20.95;14.45;;;;;;;18.84;96.32;98882.78;1660999;86;21110;-74
2021/09/18 08:43:24;;;;;;;20.97;13.68;;;;;;;18.82;96.96;98883.45;1653549;86;21623;-74
2021/09/18 08:45:51;;;;;;;17.62;12.93;;;;;;;18.81;97.09;98893.75;1660624;86;21076;-75
2021/09/18 08:48:18;;;;;;;20.05;12.28;;;;;;;18.80;96.21;98887.58;1633625;87;21582;-74
2021/09/18 08:50:49;;;;;;;14.98;11.73;;;;;;;18.81;96.07;98889.75;1634167;86;21191;-74
2021/09/18 08:53:14;;;;;;;17.85;12.10;;;;;;;18.76;95.88;98885.30;1636231;86;21061;-74
2021/09/18 08:55:41;;;;;;;19.45;11.85;;;;;;;18.74;95.70;98891.25;1653666;86;21102;-74
2021/09/18 08:58:08;;;;;;;19.17;11.63;;;;;;;18.73;95.33;98890.91;1653816;86;21100;-74
2021/09/18 09:00:42;;;;;;;15.75;9.28;;;;;;;18.76;95.14;98891.96;1653375;86;21078;-74
2021/09/18 09:03:09;;;;;;;12.25;9.28;;;;;;;18.73;93.70;98901.58;1631202;86;21131;-75
2021/09/18 09:05:40;;;;;;;13.75;8.88;;;;;;;18.75;92.82;98896.45;1630555;86;21090;-75
2021/09/18 09:08:16;;;;;;;12.90;8.85;;;;;;;18.74;91.87;98893.92;1660034;86;21226;-73
2021/09/18 09:10:46;;;;;;;14.23;8.80;;;;;;;18.77;92.81;98893.66;1660707;86;21089;-75
2021/09/18 09:13:18;;;;;;;16.12;8.05;;;;;;;18.80;91.62;98896.91;1662149;86;21101;-73
2021/09/18 09:15:46;;;;;;;10.50;8.13;;;;;;;18.79;90.88;98891.70;1673420;85;21957;-75
2021/09/18 09:18:27;;;;;;;10.60;7.65;;;;;;;18.77;90.76;98897.66;1660185;86;21065;-74
2021/09/18 09:21:17;;;;;;;9.43;7.60;;;;;;;18.76;90.41;98888.80;1660169;86;21070;-73
2021/09/18 09:24:07;;;;;;;7.62;6.78;;;;;;;18.82;90.39;98889.62;1660130;86;21537;-74
2021/09/18 09:26:36;;;;;;;7.50;6.75;;;;;;;18.90;89.60;98896.07;1633383;87;21132;-73
2021/09/18 09:29:03;;;;;;;10.15;7.03;;;;;;;18.96;88.48;98896.36;1616547;87;21158;-74
2021/09/18 09:31:29;;;;;;;7.50;6.17;;;;;;;19.03;88.29;98896.14;1605996;88;21093;-75
2021/09/18 09:34:14;;;;;;;9.90;6.03;;;;;;;19.06;87.26;98894.52;1607458;87;21135;-73
2021/09/18 09:36:47;;;;;;;8.28;5.80;;;;;;;19.07;87.59;98902.89;1631659;87;21558;-74
2021/09/18 09:39:18;;;;;;;10.63;5.00;;;;;;;19.06;86.68;98902.52;1632030;87;21082;-73
2021/09/18 09:41:51;;;;;;;6.53;5.10;;;;;;;19.00;87.02;98896.44;1636866;86;21158;-75
2021/09/18 09:44:28;;;;;;;6.45;4.90;;;;;;;19.03;87.05;98904.15;1660160;86;21050;-74
2021/09/18 09:47:09;;;;;;;5.15;4.40;;;;;;;19.05;86.13;98903.52;1641523;86;21561;-74
2021/09/18 09:49:59;;;;;;;5.83;4.83;;;;;;;19.05;86.88;98907.52;1660639;85;21658;-74
2021/09/18 09:52:35;;;;;;;6.42;4.60;;;;;;;19.05;85.83;98912.86;1669455;85;21086;-75
2021/09/18 09:55:16;;;;;;;9.28;4.58;;;;;;;19.02;86.32;98918.45;1674550;85;21975;-74
2021/09/18 09:57:45;;;;;;;4.72;3.58;;;;;;;18.97;86.59;98928.71;1651403;85;21495;-74
2021/09/18 10:00:14;;;;;;;5.80;4.05;;;;;;;18.82;87.18;98928.78;1672535;85;21290;-75
2021/09/18 10:02:42;;;;;;;4.75;3.90;;;;;;;18.75;88.02;98918.27;1660118;85;21131;-74
2021/09/18 10:05:13;;;;;;;3.90;3.50;;;;;;;18.73;89.04;98922.92;1655103;86;21175;-74
2021/09/18 10:07:39;;;;;;;8.55;3.77;;;;;;;18.69;88.82;98918.83;1629004;85;21132;-74
2021/09/18 10:10:09;;;;;;;5.80;4.17;;;;;;;18.60;90.33;98925.33;1628085;88;21110;-74
2021/09/18 10:12:37;;;;;;;4.85;4.25;;;;;;;18.53;91.04;98926.86;1628024;86;21537;-74
2021/09/18 10:15:08;;;;;;;4.78;3.90;;;;;;;18.50;92.07;98933.81;1657025;86;21650;-74
2021/09/18 10:17:38;;;;;;;6.62;5.20;;;;;;;18.39;93.67;98937.42;1652915;86;21095;-74
2021/09/18 10:20:09;;;;;;;6.65;4.60;;;;;;;18.22;95.12;98943.38;1662859;86;21114;-75
2021/09/18 10:25:32;;;;;;;9.50;4.35;;;;;;;17.83;95.88;98947.22;1651645;86;21235;-74
2021/09/18 10:28:04;;;;;;;16.23;6.47;;;;;;;17.67;98.38;98954.31;1689598;84;21052;-75
2021/09/18 10:30:56;;;;;;;11.73;3.92;;;;;;;17.54;99.75;98952.33;1688813;84;21064;-74
2021/09/18 10:33:41;;;;;;;8.45;4.08;;;;;;;17.43;100.00;98957.70;1625093;86;21140;-74
2021/09/18 10:36:17;;;;;;;7.30;3.80;;;;;;;17.30;100.00;98962.73;1667472;84;21551;-73
2021/09/18 10:38:48;;;;;;;10.32;4.00;;;;;;;17.22;100.00;98959.85;1661436;86;21062;-75
2021/09/18 10:41:24;;;;;;;15.43;4.72;;;;;;;17.23;100.00;98954.91;1663626;84;21085;-74
2021/09/18 10:44:00;;;;;;;9.08;4.10;;;;;;;17.54;100.00;98952.33;1676589;84;21056;-74
2021/09/18 10:46:59;;;;;;;12.65;3.98;;;;;;;17.95;98.34;98952.81;1687375;84;21181;-74
2021/09/18 10:49:37;;;;;;;10.03;4.62;;;;;;;18.40;93.97;98946.25;1627728;87;21133;-74
2021/09/18 10:52:29;;;;;;;8.88;4.58;;;;;;;18.66;90.53;98946.12;1617706;86;21178;-74
2021/09/18 10:55:10;;;;;;;8.23;3.90;;;;;;;18.85;88.43;98947.17;1656668;84;21073;-74
2021/09/18 10:57:48;;;;;;;9.20;3.75;;;;;;;18.93;88.92;98949.13;1690289;84;21068;-74
2021/09/18 11:00:23;;;;;;;9.53;3.65;;;;;;;19.11;85.92;98939.95;1691936;84;21639;-74
2021/09/18 11:02:57;;;;;;;3.70;2.17;;;;;;;19.27;83.03;98956.25;1691382;84;21579;-74
2021/09/18 11:05:41;;;;;;;6.58;2.67;;;;;;;19.12;83.23;98950.50;1691935;84;21181;-74
2021/09/18 11:08:20;;;;;;;5.45;2.08;;;;;;;19.05;82.76;98947.55;1691839;84;21044;-74
2021/09/18 11:10:52;;;;;;;5.00;2.85;;;;;;;19.05;82.25;98953.38;1691952;84;21025;-75
2021/09/18 11:13:23;;;;;;;5.95;2.70;;;;;;;18.88;84.19;98948.22;1691609;84;21071;-75
2021/09/18 11:16:00;;;;;;;6.47;2.77;;;;;;;18.81;82.64;98948.42;1690969;84;21041;-75
2021/09/18 11:18:42;;;;;;;6.10;2.90;;;;;;;18.78;84.82;98952.70;1679127;85;21182;-75
2021/09/18 11:21:34;;;;;;;5.03;2.60;;;;;;;18.61;85.67;98959.50;1679417;85;21109;-74
2021/09/18 11:24:07;;;;;;;5.85;2.80;;;;;;;18.64;85.84;98961.91;1679523;85;21089;-75
2021/09/18 11:26:50;;;;;;;10.55;3.15;;;;;;;18.72;85.66;98965.22;1675281;85;21176;-73
2021/09/18 11:29:33;;;;;;;6.10;2.42;;;;;;;18.74;84.69;98967.26;1679067;85;21576;-74